Time;durP1;ratioP1;P1;durP2;ratioP2;P2;SDS_P1;SDS_P2;PMS_P1;PMS_P2;Temp;Humidity;BMP_temperature;BMP_pressure;BME280_temperature;BME280_humidity;BME280_pressure;Samples;Min_cycle;Max_cycle;Signal;HPM_P1;HPM_P2
2023/01/07 00:01:03;;;;;;;43.72;26.08;;;7.80;99.90;;;;;;5095093;28;20168;-82
2023/01/07 00:03:29;;;;;;;41.88;25.42;;;7.90;99.90;;;;;;5093719;28;20204;-81
2023/01/07 00:06:03;;;;;;;46.20;24.50;;;7.90;99.90;;;;;;5094949;28;20196;-81
2023/01/07 00:08:30;;;;;;;46.72;27.50;;;8.00;99.90;;;;;;5093490;28;20668;-83
2023/01/07 00:10:59;;;;;;;45.10;27.42;;;7.90;99.90;;;;;;5093582;28;20176;-83
2023/01/07 00:13:25;;;;;;;45.95;28.83;;;7.80;99.90;;;;;;5093545;28;20656;-83
2023/01/07 00:15:56;;;;;;;49.27;29.33;;;7.90;99.90;;;;;;5093444;28;20183;-82
2023/01/07 00:18:21;;;;;;;54.95;30.80;;;7.90;99.90;;;;;;5093495;28;20254;-82
2023/01/07 00:20:47;;;;;;;46.20;29.27;;;7.90;99.90;;;;;;5094736;28;20172;-82
2023/01/07 00:23:13;;;;;;;53.80;32.43;;;7.70;99.90;;;;;;5093280;28;20188;-82
2023/01/07 00:25:38;;;;;;;54.00;33.10;;;7.60;99.90;;;;;;5094607;28;20389;-82
2023/01/07 00:28:04;;;;;;;62.07;36.47;;;7.50;99.90;;;;;;5094563;28;20217;-82
2023/01/07 00:30:29;;;;;;;55.43;33.17;;;7.50;99.90;;;;;;5095010;28;20208;-82
2023/01/07 00:33:05;;;;;;;57.43;34.03;;;7.40;99.90;;;;;;5094405;28;20192;-82
2023/01/07 00:35:32;;;;;;;60.47;31.90;;;7.40;99.90;;;;;;5094930;28;20210;-82
2023/01/07 00:37:57;;;;;;;49.35;29.65;;;7.30;99.90;;;;;;5094318;28;20212;-82
2023/01/07 00:40:23;;;;;;;53.23;31.93;;;7.40;99.90;;;;;;5093241;28;20275;-82
2023/01/07 00:43:05;;;;;;;52.10;29.60;;;7.40;99.90;;;;;;5093044;28;20627;-82
2023/01/07 00:45:34;;;;;;;60.22;33.03;;;7.30;99.90;;;;;;5092926;28;20180;-82
2023/01/07 00:48:01;;;;;;;45.50;28.80;;;7.40;99.90;;;;;;5092886;28;20196;-82
2023/01/07 00:50:32;;;;;;;52.28;28.63;;;7.30;99.90;;;;;;5094614;28;20187;-81
2023/01/07 00:52:58;;;;;;;42.90;26.50;;;7.40;99.90;;;;;;5092943;28;20196;-82
2023/01/07 00:55:25;;;;;;;49.07;28.00;;;7.40;99.90;;;;;;5092677;28;20235;-82
2023/01/07 00:57:51;;;;;;;50.05;27.00;;;7.40;99.90;;;;;;5092760;28;20476;-82
2023/01/07 01:00:19;;;;;;;44.10;27.60;;;7.50;99.90;;;;;;5094573;28;20220;-82
2023/01/07 01:02:46;;;;;;;44.22;26.55;;;7.40;99.90;;;;;;5092628;28;20521;-82
2023/01/07 01:05:12;;;;;;;42.95;24.85;;;7.40;99.90;;;;;;5092911;28;20285;-81
2023/01/07 01:07:38;;;;;;;43.17;24.40;;;7.50;99.90;;;;;;5093903;28;20587;-82
2023/01/07 01:10:06;;;;;;;39.60;24.33;;;7.50;99.90;;;;;;5092818;28;20191;-82
2023/01/07 01:12:34;;;;;;;42.38;23.75;;;7.50;99.90;;;;;;5092456;28;20189;-82
2023/01/07 01:15:00;;;;;;;37.95;23.10;;;7.60;99.90;;;;;;5094231;28;20259;-82
2023/01/07 01:17:26;;;;;;;36.00;22.95;;;7.60;99.90;;;;;;5092471;28;20228;-82
2023/01/07 01:19:52;;;;;;;31.55;19.00;;;7.70;99.90;;;;;;5093782;28;20187;-82
2023/01/07 01:22:18;;;;;;;39.17;20.10;;;7.70;99.90;;;;;;5093751;28;20246;-82
2023/01/07 01:24:43;;;;;;;36.57;19.27;;;7.70;99.90;;;;;;5094092;28;20678;-82
2023/01/07 01:27:09;;;;;;;38.43;19.77;;;7.70;99.90;;;;;;5093687;28;20176;-82
2023/01/07 01:29:35;;;;;;;37.93;20.50;;;7.70;99.90;;;;;;5092547;28;20188;-82
2023/01/07 01:32:01;;;;;;;35.57;21.10;;;7.80;99.90;;;;;;5093661;28;20203;-82
2023/01/07 01:34:26;;;;;;;34.60;20.07;;;7.80;99.90;;;;;;5094017;28;20177;-82
2023/01/07 01:36:52;;;;;;;38.27;20.90;;;7.90;99.90;;;;;;5092210;28;20496;-82
2023/01/07 01:39:19;;;;;;;31.40;19.60;;;8.00;99.90;;;;;;5093881;28;20421;-82
2023/01/07 01:41:45;;;;;;;34.92;19.77;;;8.10;99.90;;;;;;5094010;28;20396;-81
2023/01/07 01:44:36;;;;;;;35.40;19.65;;;8.10;99.90;;;;;;5093692;28;20200;-82
2023/01/07 01:47:13;;;;;;;32.60;19.30;;;8.10;99.90;;;;;;5092315;28;20644;-82
2023/01/07 01:49:46;;;;;;;39.58;21.30;;;8.00;99.90;;;;;;5092474;28;20610;-82
2023/01/07 01:52:16;;;;;;;31.20;19.17;;;7.90;99.90;;;;;;5092168;28;20245;-82
2023/01/07 01:54:45;;;;;;;34.85;19.90;;;7.90;99.90;;;;;;5093212;28;20272;-81
2023/01/07 01:57:11;;;;;;;32.97;20.20;;;7.80;99.90;;;;;;5093254;28;20585;-82
2023/01/07 01:59:41;;;;;;;34.80;21.13;;;7.80;99.90;;;;;;5093731;28;20177;-82
2023/01/07 02:02:08;;;;;;;36.35;20.00;;;7.80;99.90;;;;;;5093500;28;20401;-82
2023/01/07 02:04:34;;;;;;;37.92;23.02;;;8.00;99.90;;;;;;5092235;28;20774;-82
2023/01/07 02:07:04;;;;;;;36.88;23.00;;;8.00;99.90;;;;;;5093354;28;20172;-82
2023/01/07 02:09:31;;;;;;;32.13;19.00;;;8.00;99.90;;;;;;5093635;28;20653;-82
2023/01/07 02:12:08;;;;;;;38.25;21.95;;;8.00;99.90;;;;;;5092019;28;20172;-82
2023/01/07 02:14:37;;;;;;;33.03;21.10;;;8.00;99.90;;;;;;5092186;28;20180;-82
2023/01/07 02:17:49;;;;;;;34.80;20.70;;;8.00;99.90;;;;;;5091947;28;20240;-82
2023/01/07 02:20:55;;;;;;;29.05;19.35;;;8.00;99.90;;;;;;5070156;28;20189;-82
2023/01/07 02:23:21;;;;;;;33.28;19.00;;;7.80;99.90;;;;;;5050832;28;20670;-82
2023/01/07 02:25:58;;;;;;;30.50;18.57;;;7.70;99.90;;;;;;5086373;28;20191;-82
2023/01/07 02:28:49;;;;;;;31.98;17.27;;;7.50;99.90;;;;;;5091752;28;20199;-82
2023/01/07 02:31:24;;;;;;;29.45;17.98;;;7.40;99.90;;;;;;5093479;28;20213;-82
2023/01/07 02:34:08;;;;;;;48.40;26.85;;;7.40;99.90;;;;;;5096890;28;20199;-82
2023/01/07 02:36:52;;;;;;;34.70;21.15;;;7.30;99.90;;;;;;5095346;28;20249;-82
2023/01/07 02:39:42;;;;;;;34.67;20.17;;;7.10;99.90;;;;;;5096747;28;20191;-82
2023/01/07 02:42:48;;;;;;;34.88;19.58;;;7.00;99.90;;;;;;5095349;28;20179;-82
2023/01/07 02:45:17;;;;;;;37.92;19.35;;;6.90;99.90;;;;;;5097118;28;20267;-82
2023/01/07 02:47:54;;;;;;;30.45;19.80;;;6.80;99.90;;;;;;5095197;28;20204;-83
2023/01/07 02:50:20;;;;;;;50.00;29.55;;;6.80;99.90;;;;;;5095347;28;20173;-82
2023/01/07 02:52:45;;;;;;;42.10;26.00;;;6.70;99.90;;;;;;5095120;28;20222;-82
2023/01/07 02:55:16;;;;;;;39.47;22.20;;;6.70;99.90;;;;;;5094905;28;20580;-83
2023/01/07 02:57:58;;;;;;;36.70;22.20;;;6.60;99.90;;;;;;5095005;28;20228;-82
2023/01/07 03:00:57;;;;;;;36.45;21.17;;;6.50;99.90;;;;;;5096841;28;20177;-82
2023/01/07 03:03:28;;;;;;;38.63;22.60;;;6.50;99.90;;;;;;5096200;28;20218;-82
2023/01/07 03:06:12;;;;;;;37.10;22.65;;;6.40;99.90;;;;;;5095000;28;20253;-82
2023/01/07 03:08:47;;;;;;;37.55;23.75;;;6.40;99.90;;;;;;5096247;28;20207;-82
2023/01/07 03:11:13;;;;;;;43.30;22.17;;;6.40;99.90;;;;;;5094779;28;20262;-82
2023/01/07 03:13:39;;;;;;;41.77;23.37;;;6.40;99.90;;;;;;5094629;28;20740;-82
2023/01/07 03:16:11;;;;;;;39.87;21.97;;;6.30;99.90;;;;;;5094704;28;20456;-82
2023/01/07 03:18:44;;;;;;;40.20;22.33;;;6.40;99.90;;;;;;5095936;28;20722;-82
2023/01/07 03:21:14;;;;;;;39.13;22.42;;;6.30;99.90;;;;;;5094637;28;20690;-82
2023/01/07 03:23:45;;;;;;;40.08;24.55;;;6.30;99.90;;;;;;5095872;28;20196;-82
2023/01/07 03:26:12;;;;;;;34.22;21.88;;;6.30;99.90;;;;;;5094530;28;20208;-82
2023/01/07 03:28:41;;;;;;;36.50;24.02;;;6.20;99.90;;;;;;5095513;28;20203;-82
2023/01/07 03:31:10;;;;;;;36.10;22.42;;;6.20;99.90;;;;;;5094416;28;20172;-81
2023/01/07 03:33:59;;;;;;;37.33;21.73;;;6.20;99.90;;;;;;5095550;28;20207;-82
2023/01/07 03:36:33;;;;;;;42.85;23.90;;;6.10;99.90;;;;;;5094228;28;20212;-82
2023/01/07 03:39:00;;;;;;;43.08;24.48;;;6.10;99.90;;;;;;5094334;28;20200;-82
2023/01/07 03:44:25;;;;;;;39.95;22.45;;;6.10;99.90;;;;;;5095561;28;20190;-82
2023/01/07 03:46:51;;;;;;;40.10;22.83;;;6.00;99.90;;;;;;5095355;28;20172;-82
2023/01/07 03:49:17;;;;;;;39.22;22.20;;;6.00;99.90;;;;;;5094016;28;20191;-82
2023/01/07 03:51:44;;;;;;;46.63;26.97;;;5.90;99.90;;;;;;5095301;28;20168;-81
2023/01/07 03:54:10;;;;;;;41.65;24.27;;;6.00;99.90;;;;;;5095005;28;20688;-82
2023/01/07 03:56:36;;;;;;;46.80;27.17;;;6.00;99.90;;;;;;5093866;28;20212;-82
2023/01/07 03:59:02;;;;;;;44.23;27.73;;;6.00;99.90;;;;;;5095047;28;20200;-82
2023/01/07 04:01:28;;;;;;;45.27;27.57;;;6.00;99.90;;;;;;5095021;28;20230;-82
2023/01/07 04:03:53;;;;;;;47.63;26.13;;;6.00;99.90;;;;;;5093781;28;20431;-82
2023/01/07 04:06:19;;;;;;;44.70;28.70;;;5.90;99.90;;;;;;5094976;28;20484;-82
2023/01/07 04:08:45;;;;;;;51.47;27.60;;;5.90;99.90;;;;;;5094832;28;20283;-82
2023/01/07 04:11:10;;;;;;;49.10;27.73;;;5.80;99.90;;;;;;5093711;28;20704;-81
2023/01/07 04:13:36;;;;;;;49.87;27.17;;;5.60;99.90;;;;;;5094857;28;20288;-82
2023/01/07 04:16:02;;;;;;;55.70;29.17;;;5.60;99.90;;;;;;5094765;28;20253;-82
2023/01/07 04:18:27;;;;;;;46.67;27.50;;;5.60;99.90;;;;;;5093323;28;20757;-81
2023/01/07 04:20:54;;;;;;;44.27;25.67;;;5.60;99.90;;;;;;5093499;28;20783;-82
2023/01/07 04:23:19;;;;;;;44.00;27.08;;;5.60;99.90;;;;;;5094617;28;20195;-82
2023/01/07 04:25:46;;;;;;;53.57;29.10;;;5.60;99.90;;;;;;5093391;28;20580;-81
2023/01/07 04:28:12;;;;;;;50.20;28.90;;;5.60;99.90;;;;;;5094425;28;20207;-82
2023/01/07 04:30:38;;;;;;;52.23;27.70;;;5.70;99.90;;;;;;5093291;28;20586;-82
2023/01/07 04:33:04;;;;;;;51.30;27.70;;;5.70;99.90;;;;;;5094453;28;20425;-82
2023/01/07 04:35:31;;;;;;;43.78;25.35;;;5.70;99.90;;;;;;5092985;28;20180;-81
2023/01/07 04:37:57;;;;;;;53.15;27.17;;;5.60;99.90;;;;;;5094328;28;20242;-82
2023/01/07 04:40:23;;;;;;;39.93;25.00;;;5.50;99.90;;;;;;5094895;28;20176;-82
2023/01/07 04:42:48;;;;;;;44.43;24.60;;;5.50;99.90;;;;;;5092961;28;20404;-82
2023/01/07 04:45:14;;;;;;;36.50;24.00;;;5.40;99.90;;;;;;5094788;28;20447;-82
2023/01/07 04:47:40;;;;;;;38.53;23.67;;;5.40;99.90;;;;;;5092950;28;20196;-81
2023/01/07 04:50:06;;;;;;;35.60;23.67;;;5.40;99.90;;;;;;5094681;28;20230;-82
2023/01/07 04:52:32;;;;;;;40.10;24.23;;;5.40;99.90;;;;;;5093969;28;20200;-82
2023/01/07 04:54:57;;;;;;;45.70;25.00;;;5.40;99.90;;;;;;5091961;28;20238;-82
2023/01/07 04:57:23;;;;;;;39.23;23.27;;;5.40;99.90;;;;;;5093943;28;20212;-82
2023/01/07 04:59:48;;;;;;;52.47;28.20;;;5.30;99.90;;;;;;5093032;28;20188;-82
2023/01/07 05:02:14;;;;;;;53.80;30.40;;;5.40;99.90;;;;;;5094097;28;20196;-82
2023/01/07 05:04:40;;;;;;;51.37;30.90;;;5.40;99.90;;;;;;5092718;28;20180;-82
2023/01/07 05:07:06;;;;;;;60.93;38.50;;;5.40;99.90;;;;;;5093970;28;20251;-82
2023/01/07 05:09:32;;;;;;;58.93;34.17;;;5.30;99.90;;;;;;5094153;28;20202;-82
2023/01/07 05:11:58;;;;;;;50.28;30.15;;;5.20;99.90;;;;;;5092629;28;20623;-82
2023/01/07 05:14:23;;;;;;;42.43;26.60;;;5.20;99.90;;;;;;5092655;28;20219;-82
2023/01/07 05:16:49;;;;;;;40.80;24.60;;;5.20;99.90;;;;;;5093853;28;20634;-81
2023/01/07 05:19:15;;;;;;;45.40;27.43;;;5.00;99.90;;;;;;5093974;28;20211;-81
2023/01/07 05:21:40;;;;;;;44.50;26.37;;;4.90;99.90;;;;;;5093852;28;20660;-81
2023/01/07 05:24:07;;;;;;;49.30;27.23;;;5.00;99.90;;;;;;5092554;28;20196;-82
2023/01/07 05:26:33;;;;;;;48.20;28.90;;;5.00;99.90;;;;;;5092469;28;20177;-82
2023/01/07 05:28:58;;;;;;;48.73;29.67;;;5.00;99.90;;;;;;5093838;28;20260;-81
2023/01/07 05:31:24;;;;;;;44.30;27.63;;;5.00;99.90;;;;;;5092499;28;20183;-80
2023/01/07 05:33:50;;;;;;;46.20;29.20;;;5.10;99.90;;;;;;5092307;28;20265;-82
2023/01/07 05:36:16;;;;;;;52.87;28.70;;;5.00;99.90;;;;;;5092370;28;20212;-81
2023/01/07 05:38:41;;;;;;;50.40;27.77;;;5.10;99.90;;;;;;5092445;28;20204;-82
2023/01/07 05:41:07;;;;;;;51.23;28.57;;;5.10;99.90;;;;;;5092346;28;20641;-81
2023/01/07 05:43:33;;;;;;;49.30;29.55;;;5.00;99.90;;;;;;5092478;28;20257;-81
2023/01/07 05:45:59;;;;;;;53.13;30.17;;;5.10;99.90;;;;;;5093667;28;20164;-81
2023/01/07 05:48:25;;;;;;;48.73;30.23;;;5.20;99.90;;;;;;5093499;28;20548;-82
2023/01/07 05:50:50;;;;;;;49.00;30.13;;;5.20;99.90;;;;;;5092308;28;20177;-81
2023/01/07 05:53:16;;;;;;;51.97;29.50;;;5.20;99.90;;;;;;5092148;28;20199;-82
2023/01/07 05:55:42;;;;;;;51.70;29.73;;;5.20;99.90;;;;;;5093391;28;20311;-82
2023/01/07 05:58:08;;;;;;;45.27;29.23;;;5.20;99.90;;;;;;5091933;28;20220;-82
2023/01/07 06:00:35;;;;;;;62.35;40.80;;;5.20;99.90;;;;;;5092106;28;20380;-81
2023/01/07 06:03:02;;;;;;;118.45;66.40;;;5.10;99.90;;;;;;5092230;28;20688;-81
2023/01/07 06:05:27;;;;;;;67.93;39.58;;;5.00;99.90;;;;;;5092938;28;20664;-82
2023/01/07 06:07:53;;;;;;;55.03;30.60;;;5.00;99.90;;;;;;5095949;28;20202;-82
2023/01/07 06:10:19;;;;;;;49.50;30.70;;;5.00;99.90;;;;;;5097698;28;20188;-82
2023/01/07 06:12:45;;;;;;;57.50;32.00;;;5.00;99.90;;;;;;5097181;28;20229;-82
2023/01/07 06:15:11;;;;;;;54.60;30.27;;;5.00;99.90;;;;;;5096073;28;20571;-82
2023/01/07 06:17:37;;;;;;;47.43;29.40;;;5.00;99.90;;;;;;5096966;28;20530;-82
2023/01/07 06:20:03;;;;;;;52.13;29.60;;;5.00;99.90;;;;;;5096023;28;20189;-82
2023/01/07 06:22:29;;;;;;;54.72;32.58;;;5.00;99.90;;;;;;5096780;28;20188;-82
2023/01/07 06:24:54;;;;;;;53.00;31.90;;;5.00;99.90;;;;;;5095919;28;20208;-82
2023/01/07 06:27:20;;;;;;;57.43;37.00;;;5.10;99.90;;;;;;5096792;28;20239;-82
2023/01/07 06:29:46;;;;;;;81.87;46.87;;;5.10;99.90;;;;;;5095854;28;20708;-82
2023/01/07 06:32:11;;;;;;;87.33;48.40;;;5.10;99.90;;;;;;5096842;28;20272;-82
2023/01/07 06:34:37;;;;;;;90.00;52.73;;;5.00;99.90;;;;;;5097078;28;20588;-82
2023/01/07 06:37:03;;;;;;;90.07;51.70;;;5.00;99.90;;;;;;5095361;28;20702;-82
2023/01/07 06:39:28;;;;;;;73.60;40.90;;;5.00;99.90;;;;;;5095272;28;20554;-81
2023/01/07 06:41:54;;;;;;;52.27;33.13;;;4.90;99.90;;;;;;5096572;28;20179;-81
2023/01/07 06:44:20;;;;;;;50.23;31.90;;;4.80;99.90;;;;;;5096872;28;20271;-82
2023/01/07 06:46:45;;;;;;;61.77;38.23;;;4.80;99.90;;;;;;5095316;28;20192;-82
2023/01/07 06:49:11;;;;;;;124.73;59.23;;;4.70;99.90;;;;;;5096590;28;20798;-82
2023/01/07 06:51:37;;;;;;;78.63;43.57;;;4.80;99.90;;;;;;5095145;28;20194;-81
2023/01/07 06:54:02;;;;;;;64.13;38.20;;;4.90;99.90;;;;;;5096121;28;20228;-82
2023/01/07 06:56:28;;;;;;;55.90;35.90;;;4.80;99.90;;;;;;5095090;28;20291;-82
2023/01/07 06:58:53;;;;;;;62.17;36.47;;;4.70;99.90;;;;;;5094935;28;20200;-82
2023/01/07 07:01:19;;;;;;;52.60;33.67;;;4.70;99.90;;;;;;5096315;28;20190;-80
2023/01/07 07:03:45;;;;;;;60.13;37.43;;;4.60;99.90;;;;;;5094888;28;20207;-82
2023/01/07 07:06:10;;;;;;;59.13;35.50;;;4.60;99.90;;;;;;5107348;28;20396;-82
2023/01/07 07:08:36;;;;;;;54.53;34.77;;;4.60;99.90;;;;;;5114394;28;20660;-82
2023/01/07 07:11:02;;;;;;;62.17;38.07;;;4.70;99.90;;;;;;5113072;28;20178;-82
2023/01/07 07:13:29;;;;;;;58.97;35.83;;;4.70;99.90;;;;;;5114109;27;20200;-82
2023/01/07 07:15:54;;;;;;;61.08;38.70;;;4.80;99.90;;;;;;5114161;28;20175;-81
2023/01/07 07:18:20;;;;;;;61.03;37.40;;;4.80;99.90;;;;;;5111971;28;20794;-82
2023/01/07 07:20:46;;;;;;;57.23;37.93;;;4.80;99.90;;;;;;5114137;28;20632;-81
2023/01/07 07:23:13;;;;;;;75.15;42.22;;;4.80;99.90;;;;;;5114146;28;20764;-81
2023/01/07 07:25:39;;;;;;;60.05;37.50;;;4.80;99.90;;;;;;5112633;28;20183;-82
2023/01/07 07:28:04;;;;;;;76.07;44.67;;;4.70;99.90;;;;;;5113924;28;20663;-82
2023/01/07 07:30:30;;;;;;;91.97;47.30;;;4.70;99.90;;;;;;5114252;28;20796;-81
2023/01/07 07:33:01;;;;;;;108.73;51.73;;;4.80;99.90;;;;;;5112588;28;20282;-82
2023/01/07 07:35:27;;;;;;;70.50;41.78;;;4.80;99.90;;;;;;5114716;28;20635;-82
2023/01/07 07:37:52;;;;;;;61.53;40.93;;;4.90;99.90;;;;;;5113981;28;20284;-82
2023/01/07 07:40:21;;;;;;;63.50;42.30;;;5.00;99.90;;;;;;5115440;28;20182;-82
2023/01/07 07:42:47;;;;;;;66.00;41.25;;;5.00;99.90;;;;;;5114614;28;20208;-82
2023/01/07 07:45:14;;;;;;;59.63;37.97;;;5.10;99.90;;;;;;5115781;28;20229;-82
2023/01/07 07:47:41;;;;;;;55.17;37.92;;;5.30;99.90;;;;;;5115767;28;20192;-82
2023/01/07 07:50:07;;;;;;;72.72;42.75;;;5.60;99.90;;;;;;5114603;28;20286;-82
2023/01/07 07:52:34;;;;;;;80.18;46.88;;;6.00;99.90;;;;;;5115632;28;20566;-82
2023/01/07 07:54:59;;;;;;;76.43;42.05;;;6.50;99.90;;;;;;5114245;28;20566;-82
2023/01/07 07:57:25;;;;;;;50.40;37.43;;;6.80;99.90;;;;;;5114164;28;20216;-82
2023/01/07 07:59:51;;;;;;;49.50;33.57;;;7.30;99.90;;;;;;5114243;28;20718;-82
2023/01/07 08:02:18;;;;;;;46.53;33.40;;;7.70;99.90;;;;;;5114130;28;20532;-82
2023/01/07 08:04:44;;;;;;;55.55;36.17;;;8.00;99.90;;;;;;5115365;28;20175;-82
2023/01/07 08:07:11;;;;;;;47.10;35.08;;;8.40;99.90;;;;;;5115410;28;20191;-82
2023/01/07 08:09:37;;;;;;;44.85;32.55;;;9.40;99.90;;;;;;5114182;28;20183;-82
2023/01/07 08:12:03;;;;;;;56.07;33.93;;;10.10;99.90;;;;;;5115304;28;20176;-82
2023/01/07 08:14:29;;;;;;;46.35;32.85;;;10.80;99.90;;;;;;5113855;28;20443;-82
2023/01/07 08:16:55;;;;;;;41.13;31.47;;;11.40;99.90;;;;;;5115120;28;20199;-83
2023/01/07 08:19:20;;;;;;;47.67;31.57;;;11.80;99.90;;;;;;5113914;28;20241;-83
2023/01/07 08:21:47;;;;;;;45.47;32.90;;;11.90;99.90;;;;;;5115105;28;20168;-82
2023/01/07 08:24:13;;;;;;;43.88;32.30;;;12.30;99.90;;;;;;5115024;28;20284;-82
2023/01/07 08:26:39;;;;;;;42.33;32.30;;;12.70;99.90;;;;;;5113671;28;20199;-81
2023/01/07 08:29:05;;;;;;;43.00;32.93;;;12.90;99.90;;;;;;5115179;28;20526;-82
2023/01/07 08:31:30;;;;;;;45.87;33.77;;;13.20;99.90;;;;;;5114905;28;20191;-81
2023/01/07 08:33:56;;;;;;;46.33;35.63;;;13.20;99.90;;;;;;5115000;28;20192;-82
2023/01/07 08:36:22;;;;;;;47.50;35.33;;;13.20;99.90;;;;;;5113531;28;20222;-82
2023/01/07 08:38:52;;;;;;;52.17;36.13;;;13.10;99.90;;;;;;5114770;28;20667;-82
2023/01/07 08:41:19;;;;;;;45.60;35.00;;;13.00;99.90;;;;;;5113504;28;20179;-82
2023/01/07 08:43:45;;;;;;;45.43;35.70;;;12.90;99.90;;;;;;5113414;28;20800;-83
2023/01/07 08:46:10;;;;;;;52.40;35.27;;;12.40;99.90;;;;;;5113354;28;20412;-82
2023/01/07 08:48:38;;;;;;;49.90;35.67;;;12.30;99.90;;;;;;5114644;28;20518;-83
2023/01/07 08:51:06;;;;;;;46.97;35.50;;;12.20;99.90;;;;;;5113304;28;20236;-82
2023/01/07 08:53:32;;;;;;;55.73;36.37;;;12.30;99.90;;;;;;5113072;28;20448;-83
2023/01/07 08:55:57;;;;;;;43.97;35.63;;;12.70;99.90;;;;;;5114322;28;20975;-82
2023/01/07 08:58:24;;;;;;;45.10;34.83;;;13.00;99.90;;;;;;5113077;28;20439;-82
2023/01/07 09:00:51;;;;;;;49.00;35.17;;;13.20;99.90;;;;;;5114421;28;20204;-82
2023/01/07 09:03:17;;;;;;;47.33;37.23;;;13.20;99.90;;;;;;5114281;28;20515;-83
2023/01/07 09:05:45;;;;;;;54.23;39.03;;;13.50;99.90;;;;;;5113136;28;20500;-82
2023/01/07 09:08:11;;;;;;;54.73;41.30;;;14.00;99.90;;;;;;5114118;28;20431;-83
2023/01/07 09:10:36;;;;;;;65.10;42.70;;;14.50;99.90;;;;;;5113003;28;20431;-82
2023/01/07 09:13:02;;;;;;;58.73;39.10;;;14.70;99.90;;;;;;5114169;28;20211;-83
2023/01/07 09:15:28;;;;;;;52.00;38.70;;;14.90;99.90;;;;;;5113204;28;20179;-83
2023/01/07 09:17:54;;;;;;;52.30;38.27;;;15.20;99.90;;;;;;5114129;28;20211;-83
2023/01/07 09:20:20;;;;;;;52.67;39.23;;;15.80;99.90;;;;;;5113075;28;20184;-83
2023/01/07 09:22:45;;;;;;;51.73;38.27;;;16.20;99.90;;;;;;5112816;28;20200;-82
2023/01/07 09:25:11;;;;;;;52.30;38.40;;;16.50;99.90;;;;;;5114108;28;20780;-83
2023/01/07 09:27:38;;;;;;;51.83;40.57;;;16.50;99.90;;;;;;5114098;28;20300;-82
2023/01/07 09:30:06;;;;;;;45.27;36.10;;;16.20;99.90;;;;;;5113151;28;20416;-83
2023/01/07 09:32:31;;;;;;;53.63;35.67;;;15.90;99.90;;;;;;5114062;28;20928;-82
2023/01/07 09:35:01;;;;;;;57.67;39.70;;;15.90;99.90;;;;;;5114470;28;20407;-83
2023/01/07 09:37:27;;;;;;;58.17;40.70;;;16.00;99.90;;;;;;5112612;28;20223;-82
2023/01/07 09:39:52;;;;;;;43.90;38.40;;;16.00;99.90;;;;;;5114355;28;20411;-83
2023/01/07 09:42:40;;;;;;;46.10;37.10;;;16.20;99.90;;;;;;5116543;28;20282;-83
2023/01/07 09:45:20;;;;;;;48.37;35.00;;;16.50;99.90;;;;;;5118688;28;20217;-83
2023/01/07 09:47:49;;;;;;;47.00;34.53;;;17.10;99.90;;;;;;5118419;28;20490;-83
2023/01/07 09:50:42;;;;;;;45.03;36.50;;;17.60;99.90;;;;;;5117018;28;20999;-83
2023/01/07 09:53:50;;;;;;;43.97;35.73;;;18.10;99.90;;;;;;5116031;28;20985;-83
2023/01/07 09:56:22;;;;;;;48.13;37.20;;;18.40;99.90;;;;;;5094348;28;20432;-83
2023/01/07 09:58:48;;;;;;;60.83;40.30;;;18.30;99.90;;;;;;5116413;28;20439;-82
2023/01/07 10:01:23;;;;;;;44.80;34.97;;;18.10;99.90;;;;;;5117863;27;20438;-83
2023/01/07 10:03:57;;;;;;;49.63;34.53;;;17.90;99.90;;;;;;5116476;28;20676;-83
2023/01/07 10:07:03;;;;;;;50.70;35.70;;;17.80;99.90;;;;;;5116485;28;20424;-84
2023/01/07 10:09:46;;;;;;;49.10;36.30;;;17.70;99.90;;;;;;5103320;28;20480;-83
2023/01/07 10:12:23;;;;;;;45.90;36.53;;;17.50;99.90;;;;;;5117787;28;20482;-83
2023/01/07 10:15:04;;;;;;;46.40;36.07;;;17.30;99.90;;;;;;5118035;28;20412;-82
2023/01/07 10:17:51;;;;;;;54.23;40.40;;;17.30;99.90;;;;;;5116153;28;20479;-83
2023/01/07 10:21:02;;;;;;;47.77;37.77;;;17.10;99.90;;;;;;5116372;28;20767;-83
2023/01/07 10:23:37;;;;;;;51.40;38.00;;;16.80;99.90;;;;;;5115197;28;20443;-82
2023/01/07 10:26:05;;;;;;;52.03;40.50;;;16.60;99.90;;;;;;5117378;28;20830;-83
2023/01/07 10:28:36;;;;;;;56.60;39.90;;;16.40;99.90;;;;;;5115845;28;20436;-83
2023/01/07 10:31:04;;;;;;;52.60;38.50;;;16.50;99.90;;;;;;5117407;28;20449;-83
2023/01/07 10:33:33;;;;;;;57.73;43.53;;;16.40;99.90;;;;;;5117118;28;20450;-83
2023/01/07 10:35:59;;;;;;;54.73;40.37;;;16.40;99.90;;;;;;5117291;28;20412;-83
2023/01/07 10:38:26;;;;;;;52.93;41.13;;;16.40;99.90;;;;;;5116750;28;21010;-82
2023/01/07 10:40:58;;;;;;;57.37;44.83;;;16.40;99.90;;;;;;5116461;27;20412;-83
2023/01/07 10:43:29;;;;;;;56.00;43.80;;;16.20;99.90;;;;;;5114036;28;20423;-83
2023/01/07 10:46:03;;;;;;;52.27;41.97;;;15.90;99.90;;;;;;5115435;28;20441;-83
2023/01/07 10:49:06;;;;;;;55.53;40.60;;;15.90;99.90;;;;;;5113295;28;20480;-83
2023/01/07 10:51:53;;;;;;;62.30;48.33;;;15.80;99.90;;;;;;5114364;28;20458;-83
2023/01/07 10:54:44;;;;;;;60.60;41.60;;;15.70;99.90;;;;;;5113048;28;20566;-83
2023/01/07 10:57:18;;;;;;;60.37;43.07;;;15.70;99.90;;;;;;5113353;28;20546;-83
2023/01/07 10:59:48;;;;;;;59.90;42.10;;;15.70;99.90;;;;;;5114015;28;20416;-83
2023/01/07 11:02:18;;;;;;;55.93;42.13;;;15.70;99.90;;;;;;5116674;28;20978;-83
2023/01/07 11:04:43;;;;;;;56.33;44.10;;;15.60;99.90;;;;;;5115640;28;20518;-84
2023/01/07 11:07:44;;;;;;;47.43;37.50;;;15.60;99.90;;;;;;5115251;28;21020;-84
2023/01/07 11:10:20;;;;;;;48.23;36.83;;;15.60;99.90;;;;;;5113793;28;20206;-83
2023/01/07 11:12:53;;;;;;;198.40;135.70;;;15.60;99.90;;;;;;5114905;28;20439;-83
2023/01/07 11:15:25;;;;;;;89.33;61.20;;;15.50;99.90;;;;;;5115434;28;20427;-83
2023/01/07 11:17:55;;;;;;;43.80;34.03;;;15.40;99.90;;;;;;5116215;28;20467;-83
2023/01/07 11:20:49;;;;;;;43.00;31.90;;;15.40;99.90;;;;;;5115370;28;20506;-83
2023/01/07 11:23:29;;;;;;;42.87;32.10;;;15.40;99.90;;;;;;5116208;28;20519;-83
2023/01/07 11:26:11;;;;;;;62.17;44.67;;;15.30;99.90;;;;;;5116272;27;20412;-83
2023/01/07 11:29:00;;;;;;;119.73;83.30;;;15.30;99.90;;;;;;5114739;28;21023;-83
2023/01/07 11:31:50;;;;;;;163.33;115.93;;;15.30;99.90;;;;;;5115828;28;20417;-83
2023/01/07 11:34:24;;;;;;;44.23;32.50;;;15.30;99.90;;;;;;5116397;28;20937;-83
2023/01/07 11:36:50;;;;;;;38.47;31.00;;;15.10;99.90;;;;;;5114705;28;20468;-83
2023/01/07 11:39:22;;;;;;;49.80;36.70;;;15.10;99.90;;;;;;5116285;28;20408;-83
2023/01/07 11:41:52;;;;;;;43.23;31.93;;;15.10;99.90;;;;;;5116097;28;20900;-83
2023/01/07 11:44:18;;;;;;;38.57;30.70;;;15.00;99.90;;;;;;5114730;28;20413;-83
2023/01/07 11:46:44;;;;;;;41.90;30.60;;;15.00;99.90;;;;;;5114484;28;20448;-83
2023/01/07 11:49:27;;;;;;;41.93;31.60;;;15.00;99.90;;;;;;5115802;28;20472;-83
2023/01/07 11:51:54;;;;;;;42.63;32.47;;;15.10;99.90;;;;;;5114456;28;20172;-83
2023/01/07 11:54:30;;;;;;;40.20;28.43;;;15.20;99.90;;;;;;5115498;28;20467;-83
2023/01/07 11:57:19;;;;;;;34.97;27.77;;;15.10;99.90;;;;;;5115507;28;20463;-83
2023/01/07 11:59:45;;;;;;;39.93;29.70;;;15.10;99.90;;;;;;5115987;28;20748;-83
2023/01/07 12:02:25;;;;;;;40.23;28.60;;;15.10;99.90;;;;;;5114151;28;20501;-83
2023/01/07 12:04:51;;;;;;;40.27;30.30;;;15.10;99.90;;;;;;5115601;28;20416;-83
2023/01/07 12:07:17;;;;;;;43.53;32.03;;;15.00;99.90;;;;;;5115317;28;20962;-83
2023/01/07 12:09:44;;;;;;;43.77;32.10;;;15.00;99.90;;;;;;5114236;28;20533;-83
2023/01/07 12:12:35;;;;;;;40.33;29.33;;;15.00;99.90;;;;;;5113998;28;20724;-83
2023/01/07 12:15:18;;;;;;;43.37;29.10;;;15.10;99.90;;;;;;5114188;28;20531;-83
2023/01/07 12:17:47;;;;;;;47.13;31.33;;;15.00;99.90;;;;;;5113815;28;20475;-83
2023/01/07 12:21:03;;;;;;;42.43;32.30;;;15.00;99.90;;;;;;5115671;28;20923;-83
2023/01/07 12:23:53;;;;;;;42.77;31.33;;;15.00;99.90;;;;;;5055362;28;20446;-82
2023/01/07 12:26:24;;;;;;;44.97;33.27;;;15.00;99.90;;;;;;5072396;28;20414;-83
2023/01/07 12:29:09;;;;;;;43.33;33.33;;;14.90;99.90;;;;;;5100807;28;20455;-82
2023/01/07 12:32:11;;;;;;;45.87;33.97;;;14.90;99.90;;;;;;5115000;28;20744;-83
2023/01/07 12:34:58;;;;;;;47.13;35.17;;;14.90;99.90;;;;;;5113740;28;20511;-83
2023/01/07 12:37:36;;;;;;;43.93;33.33;;;15.00;99.90;;;;;;5114782;28;21052;-83
2023/01/07 12:40:09;;;;;;;46.10;34.80;;;15.00;99.90;;;;;;5115389;28;20416;-83
2023/01/07 12:42:39;;;;;;;44.63;32.13;;;15.00;99.90;;;;;;5114631;28;20448;-83
2023/01/07 12:45:14;;;;;;;42.07;32.03;;;15.00;99.90;;;;;;5113611;28;20434;-83
2023/01/07 12:47:49;;;;;;;41.17;32.43;;;15.00;99.90;;;;;;5114632;28;20462;-83
2023/01/07 12:50:40;;;;;;;48.23;37.00;;;15.10;99.90;;;;;;5113862;28;20502;-83
2023/01/07 12:53:18;;;;;;;43.63;32.00;;;15.20;99.90;;;;;;5114431;28;20497;-83